createdAt,value
2017-09-29T00:02:25.160Z,10.00
2017-09-29T00:04:53.649Z,10.42
2017-09-29T00:07:21.965Z,11.04
2017-09-29T00:09:50.270Z,11.06
2017-09-29T00:12:18.527Z,10.12
2017-09-29T00:14:46.774Z,11.56
2017-09-29T00:17:15.056Z,10.90
2017-09-29T00:19:49.358Z,10.76
2017-09-29T00:22:17.646Z,10.42
2017-09-29T00:24:45.981Z,10.02
2017-09-29T00:27:14.271Z,10.64
2017-09-29T00:29:42.593Z,11.38
2017-09-29T00:32:10.888Z,10.70
2017-09-29T00:34:39.145Z,10.44
2017-09-29T00:37:07.394Z,10.30
2017-09-29T00:39:34.910Z,11.38
2017-09-29T00:42:03.163Z,10.62
2017-09-29T00:44:31.446Z,10.50
2017-09-29T00:46:59.698Z,10.86
2017-09-29T00:49:27.278Z,12.02
2017-09-29T00:51:55.555Z,10.94
2017-09-29T00:54:28.701Z,11.10
2017-09-29T00:56:57.863Z,11.26
2017-09-29T00:59:28.582Z,11.58
2017-09-29T01:01:57.662Z,10.50
2017-09-29T01:04:29.732Z,12.26
2017-09-29T01:06:59.282Z,10.54
2017-09-29T01:09:28.114Z,10.82
2017-09-29T01:11:57.498Z,12.56
2017-09-29T01:14:25.762Z,12.62
2017-09-29T01:17:04.163Z,12.30
2017-09-29T01:19:32.418Z,12.32
2017-09-29T01:22:08.442Z,12.30
2017-09-29T01:24:36.694Z,13.40
2017-09-29T01:27:05.059Z,12.62
2017-09-29T01:29:33.358Z,11.22
2017-09-29T01:32:01.648Z,12.68
2017-09-29T01:34:29.935Z,11.52
2017-09-29T01:37:04.059Z,11.86
2017-09-29T01:39:32.364Z,12.46
2017-09-29T01:42:04.491Z,13.40
2017-09-29T01:44:32.783Z,11.48
2017-09-29T01:47:06.417Z,13.10
2017-09-29T01:49:34.706Z,12.08
2017-09-29T01:52:06.514Z,15.04
2017-09-29T01:54:34.802Z,12.32
2017-09-29T01:57:03.107Z,12.40
2017-09-29T01:59:31.383Z,13.30
2017-09-29T02:01:59.706Z,11.92
2017-09-29T02:04:29.294Z,13.34
2017-09-29T02:07:01.174Z,12.70
2017-09-29T02:09:29.454Z,12.30
2017-09-29T02:11:58.438Z,13.04
2017-09-29T02:14:27.958Z,13.66
2017-09-29T02:16:59.502Z,12.78
2017-09-29T02:19:28.774Z,11.10
2017-09-29T02:22:00.623Z,13.76
2017-09-29T02:24:28.919Z,11.98
2017-09-29T02:27:00.606Z,12.66
2017-09-29T02:29:28.890Z,11.84
2017-09-29T02:31:59.175Z,11.74
2017-09-29T02:34:28.290Z,12.86
2017-09-29T02:37:00.385Z,13.86
2017-09-29T02:39:28.694Z,12.18
2017-09-29T02:41:57.947Z,12.58
2017-09-29T02:44:26.292Z,13.04
2017-09-29T02:46:54.582Z,12.94
2017-09-29T02:49:24.075Z,12.76
2017-09-29T02:51:53.247Z,14.06
2017-09-29T02:54:22.101Z,15.06
2017-09-29T02:56:58.411Z,13.76
2017-09-29T02:59:29.765Z,16.60
2017-09-29T03:02:05.911Z,16.98
2017-09-29T03:04:35.339Z,15.80
2017-09-29T03:07:03.627Z,17.86
2017-09-29T03:09:40.215Z,16.14
2017-09-29T03:12:08.498Z,16.40
2017-09-29T03:14:36.819Z,14.32
2017-09-29T03:17:05.090Z,15.80
2017-09-29T03:19:33.463Z,16.58
2017-09-29T03:22:01.756Z,16.76
2017-09-29T03:24:30.016Z,16.44
2017-09-29T03:26:58.347Z,17.36
2017-09-29T03:29:27.803Z,17.32
2017-09-29T03:31:59.674Z,16.96
2017-09-29T03:34:29.243Z,18.32
2017-09-29T03:37:00.696Z,15.54
2017-09-29T03:39:28.966Z,17.02
2017-09-29T03:41:58.091Z,14.76
2017-09-29T03:44:27.447Z,15.50
2017-09-29T03:46:55.743Z,15.58
2017-09-29T03:49:23.998Z,15.74
2017-09-29T03:52:02.967Z,15.46
2017-09-29T03:54:31.480Z,14.64
2017-09-29T03:57:06.807Z,16.08
2017-09-29T03:59:35.098Z,16.16
2017-09-29T04:02:03.378Z,15.94
2017-09-29T04:04:31.677Z,16.02
2017-09-29T04:06:59.955Z,16.92
2017-09-29T04:09:28.255Z,14.66
2017-09-29T04:11:57.582Z,16.38
2017-09-29T04:14:25.830Z,16.82
2017-09-29T04:16:54.104Z,17.86
2017-09-29T04:19:23.212Z,20.12
2017-09-29T04:21:52.244Z,20.24
2017-09-29T04:24:20.831Z,19.26
2017-09-29T04:26:49.089Z,20.62
2017-09-29T04:29:17.388Z,21.08
2017-09-29T04:31:45.659Z,21.48
2017-09-29T04:34:16.998Z,20.30
2017-09-29T04:36:45.283Z,21.80
2017-09-29T04:39:13.582Z,21.42
2017-09-29T04:41:41.889Z,21.08
2017-09-29T04:44:10.189Z,20.48
2017-09-29T04:46:38.443Z,19.32
2017-09-29T04:49:06.784Z,21.44
2017-09-29T04:51:35.038Z,20.16
2017-09-29T04:54:03.317Z,18.44
2017-09-29T04:56:31.581Z,17.90
2017-09-29T04:58:59.870Z,19.60
2017-09-29T05:01:29.123Z,18.40
2017-09-29T05:03:58.390Z,17.78
2017-09-29T05:06:27.740Z,18.00
2017-09-29T05:08:57.724Z,18.12
2017-09-29T05:11:27.739Z,18.22
2017-09-29T05:13:56.719Z,18.36
2017-09-29T05:16:24.989Z,17.66
2017-09-29T05:18:54.520Z,17.00
2017-09-29T05:21:23.302Z,18.92
2017-09-29T05:23:52.071Z,17.94
2017-09-29T05:26:20.342Z,21.18
2017-09-29T05:28:48.614Z,18.26
2017-09-29T05:31:16.910Z,18.74
2017-09-29T05:33:45.199Z,16.86
2017-09-29T05:36:13.479Z,18.72
2017-09-29T05:38:41.743Z,19.48
2017-09-29T05:41:10.023Z,16.92
2017-09-29T05:43:38.309Z,18.48
2017-09-29T05:46:06.586Z,19.16
2017-09-29T05:48:34.878Z,18.34
2017-09-29T05:51:03.142Z,19.88
2017-09-29T05:53:31.410Z,18.82
2017-09-29T05:55:59.707Z,18.54
2017-09-29T05:58:29.286Z,19.26
2017-09-29T06:00:58.714Z,20.76
2017-09-29T06:03:27.956Z,19.82
2017-09-29T06:05:56.921Z,22.64
2017-09-29T06:08:25.214Z,22.02
2017-09-29T06:10:58.228Z,21.80
2017-09-29T06:13:27.645Z,21.00
2017-09-29T06:15:55.895Z,22.52
2017-09-29T06:18:24.146Z,23.78
2017-09-29T06:20:53.403Z,21.60
2017-09-29T06:23:22.086Z,20.04
2017-09-29T06:25:50.379Z,21.84
2017-09-29T06:28:18.650Z,23.86
2017-09-29T06:30:46.930Z,21.62
2017-09-29T06:33:15.178Z,21.78
2017-09-29T06:35:43.475Z,21.34
2017-09-29T06:38:11.754Z,20.52
2017-09-29T06:40:40.056Z,22.22
2017-09-29T06:43:08.375Z,21.38
2017-09-29T06:45:36.639Z,20.44
2017-09-29T06:48:04.900Z,21.72
2017-09-29T06:50:33.189Z,22.54
2017-09-29T06:53:01.451Z,23.34
2017-09-29T06:55:29.738Z,25.22
2017-09-29T06:57:59.170Z,23.38
2017-09-29T07:00:28.823Z,23.14
2017-09-29T07:02:57.079Z,22.30
2017-09-29T07:05:25.362Z,21.70
2017-09-29T07:07:54.352Z,25.34
2017-09-29T07:10:22.603Z,24.32
2017-09-29T07:12:50.859Z,25.68
2017-09-29T07:15:19.163Z,26.86
2017-09-29T07:17:47.759Z,26.38
2017-09-29T07:20:16.055Z,26.48
2017-09-29T07:22:44.310Z,26.84
2017-09-29T07:25:16.894Z,28.00
2017-09-29T07:27:46.062Z,29.06
2017-09-29T07:30:15.527Z,26.30
2017-09-29T07:32:43.011Z,29.60
2017-09-29T07:35:11.296Z,29.54
2017-09-29T07:37:39.591Z,30.18
2017-09-29T07:40:07.839Z,29.10
2017-09-29T07:42:36.094Z,27.66
2017-09-29T07:45:04.367Z,28.16
2017-09-29T07:47:32.623Z,32.44
2017-09-29T07:50:00.921Z,30.70
2017-09-29T07:52:28.407Z,31.28
2017-09-29T07:54:59.622Z,32.60
2017-09-29T07:57:29.047Z,32.38
2017-09-29T07:59:58.547Z,32.18
2017-09-29T08:02:27.910Z,35.94
2017-09-29T08:04:56.856Z,34.54
2017-09-29T08:07:25.107Z,34.82
2017-09-29T08:09:54.671Z,34.06
2017-09-29T08:12:24.240Z,34.30
2017-09-29T08:14:53.405Z,37.34
2017-09-29T08:17:22.151Z,34.16
2017-09-29T08:19:50.430Z,36.84
2017-09-29T08:22:18.687Z,35.36
2017-09-29T08:24:46.978Z,32.10
2017-09-29T08:27:25.075Z,33.26
2017-09-29T08:29:54.470Z,31.32
2017-09-29T08:32:23.650Z,32.88
2017-09-29T08:34:53.046Z,31.56
2017-09-29T08:37:21.343Z,28.18
2017-09-29T08:39:49.606Z,26.44
2017-09-29T08:42:17.092Z,27.32
2017-09-29T08:44:45.375Z,24.00
2017-09-29T08:47:13.636Z,24.10
2017-09-29T08:49:41.923Z,21.84
2017-09-29T08:52:10.180Z,21.48
2017-09-29T08:54:38.434Z,22.44
2017-09-29T08:57:06.718Z,17.40
2017-09-29T08:59:34.975Z,14.56
2017-09-29T09:02:03.288Z,14.62
2017-09-29T09:04:31.550Z,11.76
2017-09-29T09:06:59.808Z,13.42
2017-09-29T09:09:27.727Z,11.24
2017-09-29T09:11:56.699Z,11.70
2017-09-29T09:14:24.987Z,13.96
2017-09-29T09:16:53.995Z,13.66
2017-09-29T09:19:23.823Z,14.42
2017-09-29T09:21:52.143Z,12.10
2017-09-29T09:24:20.433Z,13.76
2017-09-29T09:26:48.710Z,16.06
2017-09-29T09:29:16.970Z,17.06
2017-09-29T09:31:45.263Z,18.28
2017-09-29T09:34:13.519Z,16.92
2017-09-29T09:36:41.799Z,16.52
2017-09-29T09:39:10.092Z,17.22
2017-09-29T09:41:38.352Z,19.26
2017-09-29T09:44:06.654Z,16.44
2017-09-29T09:46:34.912Z,15.26
2017-09-29T09:49:02.398Z,15.74
2017-09-29T09:51:30.707Z,14.24
2017-09-29T09:53:58.963Z,11.80
2017-09-29T09:56:27.218Z,10.58
2017-09-29T09:58:55.499Z,10.90
2017-09-29T10:01:23.755Z,9.28
2017-09-29T10:03:53.243Z,10.88
2017-09-29T10:06:22.143Z,13.36
2017-09-29T10:08:50.430Z,16.18
2017-09-29T10:11:18.690Z,12.46
2017-09-29T10:13:46.985Z,12.74
2017-09-29T10:16:14.488Z,11.06
2017-09-29T10:18:42.787Z,10.08
2017-09-29T10:21:11.039Z,10.46
2017-09-29T10:23:39.295Z,10.48
2017-09-29T10:26:07.574Z,8.66
2017-09-29T10:28:35.840Z,9.44
2017-09-29T10:31:03.359Z,9.14
2017-09-29T10:33:31.670Z,9.28
2017-09-29T10:36:03.126Z,8.42
2017-09-29T10:38:31.402Z,8.90
2017-09-29T10:40:59.728Z,8.02
2017-09-29T10:43:27.254Z,9.04
2017-09-29T10:45:58.084Z,7.86
2017-09-29T10:48:26.382Z,7.92
2017-09-29T10:50:55.876Z,8.00
2017-09-29T10:53:24.123Z,9.10
2017-09-29T10:56:06.822Z,7.58
2017-09-29T10:58:35.082Z,8.22
2017-09-29T11:01:03.366Z,7.24
2017-09-29T11:03:31.615Z,7.64
2017-09-29T11:06:00.863Z,6.70
2017-09-29T11:08:29.127Z,6.24
2017-09-29T11:10:58.391Z,6.56
2017-09-29T11:13:27.630Z,6.52
2017-09-29T11:15:55.890Z,5.14
2017-09-29T11:18:24.175Z,6.92
2017-09-29T11:20:59.833Z,7.30
2017-09-29T11:23:27.683Z,7.68
2017-09-29T11:32:03.940Z,6.60
2017-09-29T11:34:32.227Z,7.24
2017-09-29T11:37:00.487Z,6.50
2017-09-29T11:39:28.734Z,6.72
2017-09-29T11:41:57.036Z,5.90
2017-09-29T11:44:27.124Z,6.78
2017-09-29T11:46:55.404Z,6.98
2017-09-29T11:49:23.699Z,7.06
2017-09-29T11:57:36.719Z,5.94
2017-09-29T12:00:04.971Z,6.52
2017-09-29T12:02:33.224Z,6.44
2017-09-29T12:05:01.508Z,6.96
2017-09-29T12:07:29.759Z,7.18
2017-09-29T12:09:58.051Z,6.96
2017-09-29T12:12:26.299Z,7.14
2017-09-29T12:14:54.557Z,7.16
2017-09-29T12:17:22.844Z,6.72
2017-09-29T12:19:51.136Z,6.66
2017-09-29T12:22:19.383Z,7.08
2017-09-29T12:24:57.358Z,6.20
2017-09-29T12:27:25.615Z,6.12
2017-09-29T12:29:53.962Z,5.32
2017-09-29T12:32:22.252Z,5.22
2017-09-29T12:34:50.542Z,5.12
2017-09-29T12:37:18.787Z,4.90
2017-09-29T12:39:49.067Z,5.46
2017-09-29T12:42:17.343Z,5.24
2017-09-29T12:44:55.648Z,6.32
2017-09-29T12:47:23.972Z,5.34
2017-09-29T12:49:52.266Z,5.94
2017-09-29T12:52:20.544Z,6.02
2017-09-29T12:54:48.797Z,5.90
2017-09-29T12:57:16.319Z,6.28
2017-09-29T12:59:48.250Z,5.84
2017-09-29T13:08:04.499Z,5.72
2017-09-29T13:10:33.411Z,5.92
2017-09-29T13:13:01.711Z,6.24
2017-09-29T13:15:30.993Z,5.88
2017-09-29T13:17:59.311Z,5.72
2017-09-29T13:20:27.826Z,5.70
2017-09-29T13:22:56.080Z,6.64
2017-09-29T13:25:24.357Z,7.34
2017-09-29T13:27:52.652Z,5.46
2017-09-29T13:30:20.922Z,5.44
2017-09-29T13:32:48.426Z,6.32
2017-09-29T13:35:16.728Z,6.30
2017-09-29T13:37:44.982Z,6.24
2017-09-29T13:40:12.520Z,6.38
2017-09-29T13:42:40.806Z,6.46
2017-09-29T13:45:09.071Z,6.04
2017-09-29T13:47:37.363Z,7.30
2017-09-29T13:50:04.861Z,5.30
2017-09-29T13:52:34.206Z,5.76
2017-09-29T13:55:02.493Z,5.76
2017-09-29T13:57:30.827Z,6.00
2017-09-29T14:00:00.711Z,6.48
2017-09-29T14:02:29.973Z,4.66
2017-09-29T14:04:58.284Z,5.20
2017-09-29T14:07:26.596Z,5.50
2017-09-29T14:10:02.895Z,5.22
2017-09-29T14:12:31.187Z,5.32
2017-09-29T14:15:00.823Z,4.20
2017-09-29T14:17:30.033Z,5.26
2017-09-29T14:19:58.319Z,5.62
2017-09-29T14:22:27.515Z,6.10
2017-09-29T14:24:55.810Z,4.42
2017-09-29T14:27:24.116Z,4.96
2017-09-29T14:29:52.375Z,5.68
2017-09-29T14:32:20.628Z,4.52
2017-09-29T14:34:48.924Z,5.18
2017-09-29T14:37:17.176Z,5.50
2017-09-29T14:39:45.482Z,5.06
2017-09-29T14:42:13.743Z,5.04
2017-09-29T14:44:41.996Z,4.70
2017-09-29T14:47:10.307Z,5.84
2017-09-29T14:49:38.573Z,4.44
2017-09-29T14:52:10.604Z,4.50
2017-09-29T14:54:38.901Z,5.50
2017-09-29T14:57:15.396Z,5.22
2017-09-29T14:59:43.691Z,4.72
2017-09-29T15:02:11.949Z,5.00
2017-09-29T15:04:40.217Z,4.88
2017-09-29T15:07:08.504Z,5.20
2017-09-29T15:09:36.780Z,5.86
2017-09-29T15:12:07.054Z,5.20
2017-09-29T15:14:35.343Z,5.34
2017-09-29T15:17:08.269Z,5.10
2017-09-29T15:19:36.555Z,5.36
2017-09-29T15:22:04.861Z,4.76
2017-09-29T15:24:34.550Z,4.72
2017-09-29T15:27:04.491Z,5.14
2017-09-29T15:29:33.140Z,4.84
2017-09-29T15:32:07.291Z,4.78
2017-09-29T15:34:35.583Z,4.60
2017-09-29T15:37:04.261Z,4.40
2017-09-29T15:39:33.186Z,4.28
2017-09-29T15:42:01.480Z,4.54
2017-09-29T15:44:30.186Z,4.54
2017-09-29T15:46:58.443Z,4.96
2017-09-29T15:49:26.707Z,4.18
2017-09-29T15:51:55.237Z,4.80
2017-09-29T15:54:23.496Z,4.80
2017-09-29T15:56:51.755Z,4.66
2017-09-29T15:59:20.046Z,4.10
2017-09-29T16:01:48.352Z,4.64
2017-09-29T16:04:16.616Z,4.96
2017-09-29T16:06:44.864Z,5.30
2017-09-29T16:09:14.088Z,4.56
2017-09-29T16:11:42.458Z,4.62
2017-09-29T16:14:10.776Z,4.90
2017-09-29T16:16:39.041Z,5.30
2017-09-29T16:19:07.316Z,5.36
2017-09-29T16:21:35.602Z,5.48
2017-09-29T16:24:04.535Z,4.82
2017-09-29T16:26:34.284Z,6.10
2017-09-29T16:29:03.328Z,4.94
2017-09-29T16:31:31.613Z,5.20
2017-09-29T16:33:59.918Z,5.70
2017-09-29T16:36:28.215Z,5.46
2017-09-29T16:38:56.468Z,5.50
2017-09-29T16:41:23.956Z,4.98
2017-09-29T16:43:52.249Z,5.58
2017-09-29T16:46:20.512Z,5.00
2017-09-29T16:48:48.000Z,5.40
2017-09-29T16:51:16.292Z,4.86
2017-09-29T16:53:44.548Z,5.12
2017-09-29T16:56:12.821Z,5.54
2017-09-29T16:58:41.112Z,5.82
2017-09-29T17:01:09.705Z,5.42
2017-09-29T17:03:47.728Z,6.10
2017-09-29T17:06:15.988Z,6.13
2017-09-29T17:08:44.271Z,6.26
2017-09-29T17:11:12.531Z,5.34
2017-09-29T17:13:40.836Z,5.86
2017-09-29T17:16:08.343Z,5.46
2017-09-29T17:18:37.499Z,5.78
2017-09-29T17:21:05.145Z,5.62
2017-09-29T17:23:35.400Z,5.78
2017-09-29T17:26:04.130Z,6.62
2017-09-29T17:28:33.321Z,6.16
2017-09-29T17:31:01.584Z,6.08
2017-09-29T17:33:31.183Z,5.90
2017-09-29T17:36:00.491Z,7.26
2017-09-29T17:38:29.530Z,5.46
2017-09-29T17:40:57.788Z,6.52
2017-09-29T17:43:26.077Z,6.26
2017-09-29T17:45:54.371Z,5.40
2017-09-29T17:48:22.639Z,6.28
2017-09-29T17:50:50.927Z,6.22
2017-09-29T17:53:19.175Z,6.52
2017-09-29T17:55:47.479Z,7.82
2017-09-29T17:58:15.745Z,7.42
2017-09-29T18:00:44.000Z,6.64
2017-09-29T18:03:12.282Z,7.70
2017-09-29T18:05:40.543Z,8.50
2017-09-29T18:08:12.185Z,8.28
2017-09-29T18:10:40.442Z,7.72
2017-09-29T18:13:08.696Z,7.82
2017-09-29T18:15:37.013Z,7.62
2017-09-29T18:18:06.421Z,8.04
2017-09-29T18:20:35.448Z,7.82
2017-09-29T18:23:08.520Z,7.30
2017-09-29T18:25:36.797Z,7.94
2017-09-29T18:28:05.170Z,7.80
2017-09-29T18:30:33.305Z,7.60
2017-09-29T18:33:01.592Z,8.20
2017-09-29T18:35:30.215Z,7.60
2017-09-29T18:37:58.479Z,8.38
2017-09-29T18:40:27.387Z,8.02
2017-09-29T18:43:08.378Z,8.52
2017-09-29T18:45:37.469Z,6.98
2017-09-29T18:48:05.732Z,7.78
2017-09-29T18:50:34.816Z,7.72
2017-09-29T18:53:07.676Z,8.16
2017-09-29T18:55:35.928Z,7.82
2017-09-29T18:58:10.535Z,9.02
2017-09-29T19:00:38.796Z,7.20
2017-09-29T19:03:07.066Z,8.30
2017-09-29T19:05:35.407Z,9.10
2017-09-29T19:08:03.666Z,8.78
2017-09-29T19:10:33.579Z,9.08
2017-09-29T19:13:01.840Z,9.04
2017-09-29T19:15:32.071Z,8.94
2017-09-29T19:18:00.758Z,8.78
2017-09-29T19:20:34.678Z,9.84
2017-09-29T19:23:03.917Z,11.34
2017-09-29T19:25:32.171Z,10.18
2017-09-29T19:28:03.585Z,10.08
2017-09-29T19:30:31.907Z,10.64
2017-09-29T19:33:00.990Z,10.34
2017-09-29T19:35:30.287Z,10.04
2017-09-29T19:37:58.616Z,11.22
2017-09-29T19:40:26.887Z,9.76
2017-09-29T19:42:56.119Z,9.78
2017-09-29T19:45:24.413Z,9.82
2017-09-29T19:47:52.722Z,9.84
2017-09-29T19:50:20.991Z,9.28
2017-09-29T19:53:06.904Z,9.72
2017-09-29T19:55:35.173Z,9.14
2017-09-29T19:58:07.688Z,8.84
2017-09-29T20:00:35.943Z,8.38
2017-09-29T20:03:09.828Z,9.32
2017-09-29T20:05:38.088Z,8.62
2017-09-29T20:08:11.053Z,9.86
2017-09-29T20:10:39.337Z,10.04
2017-09-29T20:13:07.625Z,9.12
2017-09-29T20:15:35.924Z,9.86
2017-09-29T20:18:05.399Z,8.94
2017-09-29T20:20:34.102Z,10.86
2017-09-29T20:23:05.724Z,9.46
2017-09-29T20:25:35.139Z,8.58
2017-09-29T20:28:09.714Z,9.78
2017-09-29T20:30:37.979Z,9.22
2017-09-29T20:33:07.151Z,9.86
2017-09-29T20:35:35.437Z,8.98
2017-09-29T20:38:04.092Z,8.20
2017-09-29T20:40:33.653Z,9.12
2017-09-29T20:43:09.141Z,8.14
2017-09-29T20:45:37.430Z,8.50
2017-09-29T20:48:09.423Z,9.46
2017-09-29T20:50:37.720Z,7.60
2017-09-29T20:53:05.980Z,8.30
2017-09-29T20:55:35.192Z,9.48
2017-09-29T20:58:10.427Z,9.78
2017-09-29T21:00:38.731Z,7.64
2017-09-29T21:03:07.005Z,8.46
2017-09-29T21:05:35.282Z,8.62
2017-09-29T21:08:03.596Z,8.48
2017-09-29T21:10:31.847Z,8.38
2017-09-29T21:13:01.545Z,8.84
2017-09-29T21:15:29.830Z,8.52
2017-09-29T21:17:59.464Z,9.16
2017-09-29T21:20:27.767Z,9.34
2017-09-29T21:22:56.024Z,8.86
2017-09-29T21:25:24.283Z,7.86
2017-09-29T21:27:57.628Z,9.26
2017-09-29T21:30:25.893Z,9.48
2017-09-29T21:32:54.183Z,8.30
2017-09-29T21:35:22.471Z,8.42
2017-09-29T21:37:50.777Z,8.98
2017-09-29T21:40:19.094Z,9.82
2017-09-29T21:42:46.606Z,8.84
2017-09-29T21:45:14.868Z,9.24
2017-09-29T21:47:42.411Z,8.80
2017-09-29T21:50:10.679Z,9.58
2017-09-29T21:52:44.966Z,9.52
2017-09-29T21:55:13.219Z,8.86
2017-09-29T21:57:46.416Z,8.56
2017-09-29T22:00:14.732Z,8.62
2017-09-29T22:02:42.992Z,8.96
2017-09-29T22:05:11.268Z,8.82
2017-09-29T22:07:39.550Z,9.22
2017-09-29T22:10:09.744Z,7.86
2017-09-29T22:12:38.031Z,8.98
2017-09-29T22:15:16.484Z,8.52
2017-09-29T22:17:44.758Z,8.96
2017-09-29T22:20:14.051Z,12.02
2017-09-29T22:22:42.303Z,12.60
2017-09-29T22:25:14.123Z,12.18
2017-09-29T22:27:42.388Z,12.62
2017-09-29T22:30:14.013Z,12.62
2017-09-29T22:32:42.292Z,15.24
2017-09-29T22:35:10.563Z,15.00
2017-09-29T22:37:38.852Z,13.06
2017-09-29T22:40:16.907Z,12.72
2017-09-29T22:42:45.176Z,11.92
2017-09-29T22:45:13.447Z,10.94
2017-09-29T22:47:41.752Z,10.20
2017-09-29T22:50:10.020Z,9.90
2017-09-29T22:52:38.285Z,10.80
2017-09-29T22:55:07.580Z,12.08
2017-09-29T22:57:35.846Z,10.24
2017-09-29T23:00:05.108Z,10.46
2017-09-29T23:02:34.409Z,8.46
2017-09-29T23:05:19.250Z,9.96
2017-09-29T23:07:47.565Z,10.58
2017-09-29T23:10:22.652Z,12.04
2017-09-29T23:12:50.924Z,14.92
2017-09-29T23:15:25.702Z,16.34
2017-09-29T23:17:53.956Z,15.44
2017-09-29T23:20:23.176Z,14.24
2017-09-29T23:22:51.434Z,14.80
2017-09-29T23:25:24.228Z,13.90
2017-09-29T23:27:52.495Z,13.98
2017-09-29T23:30:20.759Z,15.52
2017-09-29T23:32:49.070Z,14.36
2017-09-29T23:35:17.377Z,14.64
2017-09-29T23:37:45.686Z,15.12
2017-09-29T23:40:15.200Z,14.44
2017-09-29T23:42:43.460Z,15.76
2017-09-29T23:45:11.751Z,11.94
2017-09-29T23:47:40.037Z,15.10
2017-09-29T23:50:08.340Z,15.14
2017-09-29T23:52:36.599Z,16.72
2017-09-29T23:55:08.114Z,19.70
2017-09-29T23:57:35.624Z,21.00
